createdAt,value
2019-04-25T00:01:46.359Z,10.30
2019-04-25T00:04:15.121Z,10.30
2019-04-25T00:06:44.014Z,10.30
2019-04-25T00:09:15.175Z,10.20
2019-04-25T00:11:46.551Z,10.10
2019-04-25T00:14:14.153Z,10.10
2019-04-25T00:16:45.141Z,10.00
2019-04-25T00:19:14.522Z,9.90
2019-04-25T00:21:53.634Z,9.80
2019-04-25T00:24:42.943Z,9.80
2019-04-25T00:27:11.807Z,9.90
2019-04-25T00:29:41.836Z,9.90
2019-04-25T00:32:11.721Z,10.00
2019-04-25T00:34:43.180Z,10.00
2019-04-25T00:37:12.262Z,9.90
2019-04-25T00:39:41.206Z,9.90
2019-04-25T00:42:12.216Z,9.90
2019-04-25T00:44:43.525Z,9.90
2019-04-25T00:47:11.762Z,9.90
2019-04-25T00:49:42.167Z,9.80
2019-04-25T00:52:11.611Z,9.80
2019-04-25T00:54:41.452Z,9.90
2019-04-25T00:57:12.089Z,9.90
2019-04-25T00:59:54.143Z,9.80
2019-04-25T01:02:24.271Z,9.80
2019-04-25T01:04:53.304Z,9.70
2019-04-25T01:07:22.768Z,9.80
2019-04-25T01:09:52.428Z,9.70
2019-04-25T01:12:21.680Z,9.80
2019-04-25T01:14:50.993Z,9.80
2019-04-25T01:17:21.151Z,9.70
2019-04-25T01:19:51.017Z,9.70
2019-04-25T01:22:19.509Z,9.60
2019-04-25T01:24:48.045Z,9.70
2019-04-25T01:27:16.585Z,9.60
2019-04-25T01:29:46.263Z,9.60
2019-04-25T01:32:16.455Z,9.60
2019-04-25T01:34:50.491Z,9.70
2019-04-25T01:37:36.119Z,9.70
2019-04-25T01:40:08.372Z,9.80
2019-04-25T01:42:38.602Z,9.80
2019-04-25T01:45:08.442Z,9.90
2019-04-25T01:47:37.099Z,9.90
2019-04-25T01:50:07.067Z,9.90
2019-04-25T01:52:35.650Z,9.90
2019-04-25T01:55:07.333Z,9.90
2019-04-25T01:57:35.878Z,9.90
2019-04-25T02:00:06.171Z,9.90
2019-04-25T02:02:34.682Z,9.90
2019-04-25T02:05:04.769Z,9.90
2019-04-25T02:07:33.539Z,9.80
2019-04-25T02:10:03.667Z,9.80
2019-04-25T02:12:33.862Z,9.80
2019-04-25T02:15:05.926Z,9.80
2019-04-25T02:17:34.021Z,9.80
2019-04-25T02:20:04.587Z,9.80
2019-04-25T02:22:33.942Z,9.90
2019-04-25T02:25:04.575Z,9.90
2019-04-25T02:27:34.255Z,10.00
2019-04-25T02:30:04.391Z,9.90
2019-04-25T02:32:34.449Z,10.00
2019-04-25T02:35:09.121Z,9.90
2019-04-25T02:37:35.200Z,9.90
2019-04-25T02:40:07.716Z,9.80
2019-04-25T02:42:35.887Z,9.80
2019-04-25T02:45:28.839Z,9.80
2019-04-25T02:48:07.579Z,9.80
2019-04-25T02:50:37.696Z,9.80
2019-04-25T02:53:07.783Z,9.70
2019-04-25T02:55:37.599Z,9.70
2019-04-25T02:58:10.023Z,9.70
2019-04-25T03:00:51.353Z,9.70
2019-04-25T03:03:08.524Z,9.70
2019-04-25T03:05:37.313Z,9.80
2019-04-25T03:08:08.987Z,9.80
2019-04-25T03:10:36.137Z,9.80
2019-04-25T03:13:09.742Z,9.80
2019-04-25T03:15:36.546Z,9.80
2019-04-25T03:18:10.391Z,9.80
2019-04-25T03:20:45.125Z,9.80
2019-04-25T03:23:34.954Z,9.80
2019-04-25T03:26:04.736Z,9.80
2019-04-25T03:28:34.519Z,9.80
2019-04-25T03:31:08.587Z,9.80
2019-04-25T03:33:37.921Z,9.80
2019-04-25T03:36:05.143Z,9.80
2019-04-25T03:38:34.279Z,9.80
2019-04-25T03:41:04.430Z,9.80
2019-04-25T03:43:33.287Z,9.80
2019-04-25T03:46:04.677Z,9.80
2019-04-25T03:48:36.383Z,9.70
2019-04-25T03:51:04.581Z,9.70
2019-04-25T03:53:33.787Z,9.70
2019-04-25T03:56:04.762Z,9.70
2019-04-25T03:58:33.747Z,9.70
2019-04-25T04:01:03.959Z,9.70
2019-04-25T04:03:33.927Z,9.70
2019-04-25T04:06:04.336Z,9.60
2019-04-25T04:08:34.332Z,9.60
2019-04-25T04:11:05.363Z,9.60
2019-04-25T04:13:34.239Z,9.60
2019-04-25T04:16:03.379Z,9.60
2019-04-25T04:18:34.652Z,9.60
2019-04-25T04:21:11.108Z,9.60
2019-04-25T04:23:43.727Z,9.50
2019-04-25T04:26:13.654Z,9.50
2019-04-25T04:28:43.526Z,9.60
2019-04-25T04:31:12.593Z,9.60
2019-04-25T04:33:43.136Z,9.70
2019-04-25T04:36:11.829Z,9.70
2019-04-25T04:38:40.370Z,9.80
2019-04-25T04:41:09.723Z,9.80
2019-04-25T04:43:38.230Z,9.90
2019-04-25T04:46:06.690Z,9.90
2019-04-25T04:48:35.328Z,9.90
2019-04-25T04:51:03.912Z,9.90
2019-04-25T04:53:35.543Z,9.90
2019-04-25T04:56:04.174Z,10.00
2019-04-25T04:58:34.215Z,10.00
2019-04-25T05:01:03.687Z,10.00
2019-04-25T05:03:36.838Z,10.10
2019-04-25T05:06:07.063Z,10.20
2019-04-25T05:08:37.179Z,10.20
2019-04-25T05:11:05.792Z,10.30
2019-04-25T05:13:34.296Z,10.30
2019-04-25T05:16:03.165Z,10.40
2019-04-25T05:18:36.897Z,10.40
2019-04-25T05:21:01.999Z,10.40
2019-04-25T05:23:30.810Z,10.50
2019-04-25T05:25:59.290Z,10.60
2019-04-25T05:28:27.778Z,10.60
2019-04-25T05:31:00.856Z,10.60
2019-04-25T05:33:29.332Z,10.70
2019-04-25T05:35:57.791Z,10.80
2019-04-25T05:38:26.336Z,10.90
2019-04-25T05:40:56.422Z,11.00
2019-04-25T05:43:26.500Z,11.10
2019-04-25T05:45:55.019Z,11.20
2019-04-25T05:48:25.121Z,11.30
2019-04-25T05:50:53.878Z,11.40
2019-04-25T05:53:23.847Z,11.30
2019-04-25T05:55:54.036Z,11.30
2019-04-25T05:58:24.596Z,11.30
2019-04-25T06:00:54.296Z,11.40
2019-04-25T06:03:24.858Z,11.40
2019-04-25T06:05:53.445Z,11.50
2019-04-25T06:08:25.469Z,11.70
2019-04-25T06:10:58.471Z,11.90
2019-04-25T06:13:46.702Z,11.90
2019-04-25T06:16:18.434Z,12.00
2019-04-25T06:18:48.764Z,12.10
2019-04-25T06:21:17.243Z,12.10
2019-04-25T06:23:47.343Z,12.10
2019-04-25T06:26:26.675Z,12.20
2019-04-25T06:28:53.825Z,12.20
2019-04-25T06:31:19.715Z,12.20
2019-04-25T06:33:48.488Z,12.30
2019-04-25T06:36:17.088Z,12.30
2019-04-25T06:38:45.671Z,12.30
2019-04-25T06:41:14.209Z,12.40
2019-04-25T06:43:44.410Z,12.40
2019-04-25T06:46:24.772Z,12.30
2019-04-25T06:48:54.995Z,12.30
2019-04-25T06:51:26.150Z,12.40
2019-04-25T06:53:55.436Z,12.60
2019-04-25T06:56:24.955Z,12.70
2019-04-25T06:58:54.980Z,12.80
2019-04-25T07:01:25.111Z,12.80
2019-04-25T07:03:54.743Z,12.80
2019-04-25T07:06:25.256Z,12.80
2019-04-25T07:08:53.597Z,12.90
2019-04-25T07:11:23.827Z,12.90
2019-04-25T07:13:53.702Z,12.90
2019-04-25T07:16:24.039Z,12.90
2019-04-25T07:18:53.450Z,13.00
2019-04-25T07:21:24.017Z,13.00
2019-04-25T07:30:48.435Z,13.20
2019-04-25T07:33:29.459Z,13.50
2019-04-25T07:36:04.346Z,13.70
2019-04-25T07:38:38.790Z,13.90
2019-04-25T07:45:18.943Z,14.20
2019-04-25T07:48:43.912Z,14.30
2019-04-25T07:50:59.918Z,14.20
2019-04-25T07:57:23.870Z,14.60
2019-04-25T08:00:27.370Z,14.70
2019-04-25T08:02:42.021Z,15.20
2019-04-25T08:07:53.855Z,15.40
2019-04-25T08:10:30.026Z,15.50
2019-04-25T08:16:30.170Z,15.10
2019-04-25T08:22:31.146Z,14.70
2019-04-25T08:25:21.035Z,14.70
2019-04-25T08:28:25.807Z,14.80
2019-04-25T08:31:23.469Z,14.80
2019-04-25T08:40:41.967Z,14.90
2019-04-25T08:45:59.417Z,15.20
2019-04-25T09:01:34.617Z,14.90
2019-04-25T09:03:38.479Z,14.90
2019-04-25T09:06:29.520Z,15.00
2019-04-25T09:09:23.547Z,15.00
2019-04-25T09:23:53.527Z,15.50
2019-04-25T09:37:41.409Z,16.00
2019-04-25T09:46:15.602Z,17.30
2019-04-25T09:48:46.708Z,17.70
2019-04-25T09:51:17.201Z,18.10
2019-04-25T09:54:03.505Z,18.30
2019-04-25T09:56:46.100Z,18.40
2019-04-25T09:59:26.790Z,18.50
2019-04-25T10:01:48.682Z,18.70
2019-04-25T10:04:17.361Z,18.60
2019-04-25T10:06:47.573Z,18.30
2019-04-25T10:09:18.256Z,18.30
2019-04-25T10:12:10.197Z,18.30
2019-04-25T10:14:26.715Z,18.30
2019-04-25T10:16:56.991Z,18.30
2019-04-25T10:19:25.812Z,18.60
2019-04-25T10:21:55.241Z,18.60
2019-04-25T10:24:24.187Z,18.40
2019-04-25T10:27:03.814Z,18.30
2019-04-25T10:29:41.296Z,18.30
2019-04-25T10:34:44.678Z,18.70
2019-04-25T10:37:16.068Z,19.10
2019-04-25T10:39:44.774Z,19.30
2019-04-25T10:42:14.722Z,19.20
2019-04-25T10:44:56.645Z,19.20
2019-04-25T11:10:49.868Z,18.40
2019-04-25T11:30:22.823Z,19.50
2019-04-25T11:35:50.713Z,19.50
2019-04-25T11:38:46.205Z,19.80
2019-04-25T11:57:08.349Z,22.20
2019-04-25T11:59:38.854Z,21.80
2019-04-25T12:30:56.402Z,21.10
2019-04-25T12:36:55.292Z,20.50
2019-04-25T12:39:43.278Z,20.40
2019-04-25T12:52:48.667Z,22.00
2019-04-25T12:55:23.894Z,22.00
2019-04-25T13:15:04.797Z,22.50
2019-04-25T13:17:39.214Z,22.30
2019-04-25T13:20:47.293Z,21.60
2019-04-25T13:22:55.750Z,21.20
2019-04-25T13:25:30.623Z,21.00
2019-04-25T13:35:16.673Z,20.90
2019-04-25T13:51:00.931Z,22.40
2019-04-25T14:14:57.211Z,21.70
2019-04-25T14:18:18.223Z,21.50
2019-04-25T14:23:58.079Z,21.20
2019-04-25T14:36:03.234Z,21.10
2019-04-25T14:38:56.152Z,21.00
2019-04-25T14:41:34.011Z,21.00
2019-04-25T14:53:13.604Z,21.20
2019-04-25T14:58:43.075Z,21.30
2019-04-25T15:01:43.830Z,21.50
2019-04-25T15:07:19.283Z,21.50
2019-04-25T15:10:43.574Z,21.50
2019-04-25T15:18:47.302Z,21.60
2019-04-25T15:36:53.818Z,21.40
2019-04-25T15:39:42.288Z,21.30
2019-04-25T15:42:38.810Z,21.30
2019-04-25T15:45:36.494Z,21.40
2019-04-25T15:48:25.236Z,21.30
2019-04-25T15:51:11.920Z,21.20
2019-04-25T15:54:07.390Z,21.30
2019-04-25T16:02:52.703Z,21.30
2019-04-25T16:05:38.539Z,21.20
2019-04-25T16:11:15.791Z,21.00
2019-04-25T16:14:08.016Z,20.70
2019-04-25T16:20:02.582Z,20.20
2019-04-25T16:22:41.370Z,20.00
2019-04-25T16:25:17.929Z,19.90
2019-04-25T16:27:48.430Z,19.70
2019-04-25T16:30:34.452Z,19.60
2019-04-25T16:33:02.257Z,19.40
2019-04-25T16:35:31.155Z,19.30
2019-04-25T16:41:16.491Z,19.10
2019-04-25T16:44:22.885Z,19.10
2019-04-25T16:50:09.651Z,19.00
2019-04-25T16:53:01.933Z,18.90
2019-04-25T16:56:07.777Z,18.90
2019-04-25T16:58:33.746Z,18.80
2019-04-25T17:01:10.218Z,18.60
2019-04-25T17:04:02.867Z,18.50
2019-04-25T17:06:33.932Z,18.30
2019-04-25T17:09:17.291Z,18.20
2019-04-25T17:18:12.240Z,17.90
2019-04-25T17:23:28.676Z,17.80
2019-04-25T17:26:00.395Z,17.70
2019-04-25T17:28:32.694Z,17.60
2019-04-25T17:31:20.665Z,17.60
2019-04-25T17:33:57.977Z,17.50
2019-04-25T17:37:03.695Z,17.50
2019-04-25T17:42:23.785Z,17.40
2019-04-25T17:44:52.793Z,17.40
2019-04-25T17:47:28.863Z,17.40
2019-04-25T17:50:06.646Z,17.30
2019-04-25T17:53:07.214Z,17.10
2019-04-25T17:55:39.702Z,17.10
2019-04-25T18:01:02.124Z,16.90
2019-04-25T18:11:50.830Z,16.70
2019-04-25T18:14:43.918Z,16.60
2019-04-25T18:29:07.391Z,16.30
2019-04-25T18:41:49.512Z,16.10
2019-04-25T19:00:01.992Z,15.80
2019-04-25T19:44:45.127Z,15.60
2019-04-25T20:01:05.416Z,15.30
2019-04-25T21:45:07.281Z,14.50
2019-04-25T21:51:01.072Z,14.50
2019-04-25T21:53:29.824Z,14.60
2019-04-25T21:55:59.589Z,14.60
2019-04-25T21:58:34.943Z,14.70
2019-04-25T22:01:05.523Z,14.60
2019-04-25T22:03:36.484Z,14.70
2019-04-25T22:06:05.386Z,14.70
2019-04-25T22:08:34.243Z,14.90
2019-04-25T22:11:14.414Z,14.80
